Latest Weather Observations for Hughenden

IDQ60801

Issued at 10:02 pm EST Sunday 1 March 2015 (issued every 30 minutes, with the page automatically refreshed every 10 minutes)

About weather observations | Map of weather stations | Latest weather observations for QLD | Other Formats
Station Details ID: 030022 Name: HUGHENDEN AIRPORT Lat: -20.82 Lon: 144.23 Height: 316.4 m
Data from the previous 72 hours. | See also: Recent months at Hughenden
Date/Time
EST
Temp
°C
App
Temp
°C
Dew
Point
Rel
Hum
%
Delta-T
°C
Wind Press
QNH
hPa
Press
MSL
hPa
Rain
since 9 am
mm
Dir
 
Spd
km/h
Gust
km/h
Spd
kts
Gust
kts
01/10:00pm 25.0 25.6 21.3 80 2.5 N 20 24 11 13 1008.7 1006.5 5.8
01/09:30pm 24.8 26.2 21.1 80 2.5 NNW 15 20 8 11 1008.8 1006.7 5.6
01/09:00pm 25.0 25.3 20.5 76 3.0 WSW 19 24 10 13 1009.7 1007.6 5.4
01/08:33pm 26.9 28.5 20.7 69 4.1 NNW 13 37 7 20 1009.8 1007.7 5.2
01/08:30pm 27.3 29.8 21.1 69 4.2 N 9 13 5 7 1009.0 1006.9 5.2
01/08:00pm 27.2 27.6 21.0 69 4.2 ENE 20 28 11 15 1008.2 1006.0 5.2
01/07:30pm 26.6 27.8 21.4 73 3.5 N 17 22 9 12 1007.7 1005.5 5.2
01/07:00pm 25.8 25.9 21.2 76 3.1 N 22 32 12 17 1007.4 1005.2 5.2
01/06:30pm 25.1 25.5 20.6 76 3.0 N 19 26 10 14 1007.6 1005.4 5.0
01/06:00pm 26.4 26.1 20.3 69 4.0 NW 22 30 12 16 1007.4 1005.2 5.0
01/05:30pm 26.6 25.2 21.1 72 3.7 NW 30 41 16 22 1007.0 1004.8 5.0
01/05:00pm 28.1 28.9 20.6 63 5.0 NNE 17 30 9 16 1007.0 1004.8 5.0
01/04:30pm 26.8 27.7 21.5 72 3.6 NW 19 22 10 12 1005.9 1003.7 5.0
01/04:00pm 27.7 28.5 21.3 68 4.3 W 19 26 10 14 1005.0 1002.8 5.0
01/03:30pm 25.2 25.2 20.9 77 2.9 WSW 22 33 12 18 1005.7 1003.5 4.8
01/03:06pm 26.1 24.1 19.2 65 4.5 SW 28 54 15 29 1006.3 1004.2 3.4
01/03:00pm 26.9 26.9 21.6 72 3.6 W 24 39 13 21 1006.5 1004.4 2.6
01/02:47pm 29.2 29.6 20.6 59 5.8 NNW 19 48 10 26 1005.9 1003.7 0.4
01/02:30pm 34.3 33.1 17.1 36 11.1 N 19 33 10 18 1005.4 1003.2 0.0
01/02:00pm 36.2 36.8 17.8 33 12.1 W 11 17 6 9 1005.8 1003.6 0.0
01/01:30pm 36.3 35.8 17.9 33 12.1 NW 17 28 9 15 1006.5 1004.4 0.0
01/01:00pm 36.3 36.2 18.8 35 11.7 NW 17 22 9 12 1007.2 1005.0 0.0
01/12:30pm 35.7 36.6 18.3 35 11.5 WNW 11 22 6 12 1007.7 1005.5 0.0
01/12:00pm 35.5 35.9 19.0 37 11.0 WNW 15 24 8 13 1008.2 1006.0 0.0
01/11:30am 34.5 34.1 18.9 39 10.4 WNW 19 28 10 15 1008.6 1006.4 0.0
01/11:00am 33.6 34.0 18.9 41 9.7 NW 15 24 8 13 1008.9 1006.8 0.0
01/10:30am 33.1 33.8 19.6 45 9.0 WNW 15 24 8 13 1009.3 1007.2 0.0
01/10:00am 32.3 33.5 19.9 48 8.3 NW 13 20 7 11 1009.4 1007.3 0.0
01/09:30am 31.0 32.0 19.4 50 7.7 NNW 13 17 7 9 1009.6 1007.3 0.0
01/09:00am 29.8 30.2 18.9 52 7.1 N 15 20 8 11 1009.6 1007.3 0.8
01/08:30am 29.4 30.0 19.4 55 6.6 NNW 15 20 8 11 1009.6 1007.3 0.8
01/08:00am 28.3 30.5 19.2 57 6.0 NW 6 11 3 6 1009.3 1007.0 0.8
01/07:30am 27.4 29.0 19.2 61 5.4 NE 9 13 5 7 1008.8 1006.5 0.8
01/07:00am 26.3 30.0 19.9 68 4.2 CALM 0 0 0 0 1008.4 1006.1 0.8
01/06:30am 25.5 27.9 19.6 70 3.9 NNW 6 7 3 4 1008.0 1005.7 0.8
01/06:00am 25.9 27.4 19.8 69 4.0 NNE 11 15 6 8 1007.4 1005.1 0.8
01/05:30am 26.0 27.6 19.9 69 4.0 NE 11 15 6 8 1007.0 1004.6 0.8
01/05:00am 25.9 27.8 19.8 69 4.0 NNE 9 11 5 6 1006.8 1004.4 0.8
01/04:30am 26.1 27.3 20.0 69 4.0 NE 13 17 7 9 1006.6 1004.3 0.8
01/04:00am 25.9 27.3 19.5 68 4.2 NE 11 15 6 8 1006.4 1004.1 0.8
01/03:30am 26.1 27.6 19.0 65 4.6 NE 9 11 5 6 1006.1 1003.8 0.8
01/03:00am 26.4 27.5 18.8 63 4.9 NE 11 15 6 8 1005.8 1003.5 0.8
01/02:30am 26.5 27.4 18.4 61 5.2 NNE 11 15 6 8 1005.9 1003.6 0.8
01/02:00am 26.8 27.7 18.4 60 5.4 NNE 11 15 6 8 1006.1 1003.8 0.8
01/01:30am 27.3 27.4 18.3 58 5.8 NE 15 19 8 10 1006.4 1004.1 0.8
01/01:00am 27.5 27.2 18.2 57 6.0 NE 17 20 9 11 1006.9 1004.5 0.8
01/12:30am 27.6 28.1 18.3 57 6.0 NNE 13 20 7 11 1007.0 1004.6 0.8
01/12:00am 27.8 27.6 17.6 53 6.5 NNE 15 20 8 11 1007.4 1005.1 0.8
 
Date/Time
EST
Temp
°C
App
Temp
°C
Dew
Point
Rel
Hum
%
Delta-T
°C
Wind Press
QNH
hPa
Press
MSL
hPa
Rain
since 9 am
mm
Dir
 
Spd
km/h
Gust
km/h
Spd
kts
Gust
kts
28/11:30pm 28.3 26.7 17.5 52 6.9 NE 22 30 12 16 1007.6 1005.3 0.8
28/11:00pm 28.8 27.8 18.0 52 7.0 NNE 20 28 11 15 1007.4 1005.1 0.8
28/10:30pm 28.6 27.8 18.4 54 6.6 NE 20 28 11 15 1007.2 1004.9 0.8
28/10:00pm 28.7 28.2 17.9 52 7.0 NE 17 22 9 12 1007.1 1004.7 0.8
28/09:30pm 29.1 29.1 17.3 49 7.5 N 13 17 7 9 1007.0 1004.6 0.0
28/09:00pm 29.5 28.5 16.7 46 8.1 N 17 26 9 14 1006.9 1004.5 0.0
28/08:30pm 29.7 28.4 16.8 45 8.2 N 19 24 10 13 1006.1 1003.8 0.0
28/08:00pm 29.8 28.4 17.9 48 7.7 NW 22 28 12 15 1006.3 1004.0 0.0
28/07:30pm 31.2 30.8 17.1 42 9.0 NNE 15 24 8 13 1005.7 1003.4 0.0
28/07:00pm 30.8 29.6 17.5 45 8.6 N 20 26 11 14 1005.1 1002.8 0.0
28/06:30pm 31.0 32.3 18.4 47 8.2 N 9 15 5 8 1004.6 1002.3 0.0
28/06:00pm 31.1 29.1 17.4 44 8.8 N 24 37 13 20 1004.4 1002.1 0.0
28/05:43pm 30.2 27.4 17.3 46 8.3 N 28 57 15 31 1004.3 1001.9 0.0
28/05:41pm 30.2 28.0 16.9 44 8.5 N 24 57 13 31 1004.4 1002.1 0.0
28/05:30pm 34.3 33.0 19.1 40 10.1 NNW 24 39 13 21 1004.1 1001.7 0.0
28/05:00pm 33.2 29.9 16.1 35 10.9 WSW 28 46 15 25 1004.1 1001.7 0.0
28/04:53pm 35.7 34.1 13.8 27 13.6 WSW 15 46 8 25 1004.1 1001.7 0.0
28/04:30pm 37.4 36.6 15.2 26 14.1 WNW 13 19 7 10 1004.0 1001.6 0.0
28/04:00pm 38.5 39.0 15.6 26 14.8 SSW 7 13 4 7 1004.0 1001.6 0.0
28/03:30pm 38.3 37.7 16.6 28 14.1 WNW 15 22 8 12 1004.2 1001.8 0.0
28/03:00pm 38.5 38.1 16.2 27 14.5 WNW 13 24 7 13 1004.5 1002.2 0.0
28/02:30pm 36.9 35.6 15.9 28 13.5 WSW 17 24 9 13 1004.9 1002.6 0.0
28/02:00pm 37.2 37.0 15.6 27 13.9 NNE 11 22 6 12 1005.2 1002.9 0.0
28/01:30pm 37.4 37.7 16.9 30 13.4 SW 11 24 6 13 1005.7 1003.4 0.0
28/01:00pm 36.8 36.1 17.4 32 12.7 WNW 17 26 9 14 1006.2 1003.9 0.0
28/12:30pm 36.1 35.6 16.8 32 12.5 WNW 15 26 8 14 1006.8 1004.4 0.0
28/12:00pm 35.4 34.1 16.7 33 12.1 WNW 19 28 10 15 1007.3 1005.0 0.0
28/11:30am 34.9 33.6 17.2 35 11.5 WNW 20 30 11 16 1007.5 1005.2 0.0
28/11:00am 33.9 33.1 17.2 37 10.8 WNW 17 26 9 14 1007.8 1005.5 0.0
28/10:30am 33.2 33.5 17.8 40 10.0 NW 13 20 7 11 1008.2 1005.9 0.0
28/10:00am 32.4 32.7 17.8 41 9.5 NW 13 19 7 10 1008.5 1006.2 0.0
28/09:30am 31.2 31.2 18.2 46 8.5 NNW 15 24 8 13 1008.6 1006.3 0.0
28/09:00am 30.2 29.2 17.6 46 8.1 NNW 19 22 10 12 1008.6 1006.3 1.6
28/08:30am 29.0 29.0 18.1 51 7.0 N 15 20 8 11 1008.5 1006.2 1.6
28/08:00am 28.0 28.9 18.4 56 6.2 N 11 15 6 8 1008.3 1006.0 1.6
28/07:30am 26.3 27.3 18.7 63 4.9 N 11 15 6 8 1008.3 1006.0 1.6
28/07:00am 24.8 26.2 18.7 69 3.9 N 9 11 5 6 1008.5 1006.2 1.6
28/06:30am 24.9 25.5 18.6 68 4.0 NNE 13 17 7 9 1008.4 1006.1 1.6
28/06:00am 23.5 25.9 20.0 81 2.3 NNE 7 7 4 4 1008.4 1006.1 1.6
28/05:30am 23.3 24.6 20.1 82 2.1 E 13 15 7 8 1008.3 1006.0 1.6
28/05:00am 23.1 25.6 20.2 84 1.9 SSW 7 9 4 5 1007.4 1005.1 1.6
28/04:30am 23.3 25.9 20.1 82 2.1 SSW 6 7 3 4 1007.0 1004.6 1.6
28/04:00am 23.8 26.8 20.1 80 2.4 NNW 4 7 2 4 1006.9 1004.5 1.6
28/03:30am 23.6 26.2 20.1 81 2.3 ESE 6 15 3 8 1006.6 1004.3 1.6
28/03:00am 23.4 26.0 20.1 82 2.2 ESE 6 7 3 4 1006.2 1003.9 1.6
28/02:30am 23.6 27.2 19.7 79 2.5 CALM 0 6 0 3 1006.4 1004.1 1.6
28/02:00am 23.7 25.5 19.6 78 2.7 NE 9 13 5 7 1006.9 1004.5 1.6
28/01:30am 24.0 25.8 19.5 76 2.9 NE 9 11 5 6 1007.2 1004.9 1.6
28/01:00am 24.3 26.2 19.8 76 2.9 NE 9 11 5 6 1007.5 1005.2 1.6
28/12:30am 24.4 26.2 19.5 74 3.2 NNE 9 13 5 7 1008.1 1005.8 1.6
28/12:00am 25.5 26.2 18.9 67 4.3 N 13 19 7 10 1008.1 1005.8 1.6
 
Date/Time
EST
Temp
°C
App
Temp
°C
Dew
Point
Rel
Hum
%
Delta-T
°C
Wind Press
QNH
hPa
Press
MSL
hPa
Rain
since 9 am
mm
Dir
 
Spd
km/h
Gust
km/h
Spd
kts
Gust
kts
27/11:30pm 25.4 25.1 19.1 68 4.1 NNE 19 28 10 15 1007.9 1005.6 1.6
27/11:00pm 25.5 25.0 19.2 68 4.1 N 20 28 11 15 1008.0 1005.7 1.6
27/10:30pm 25.1 23.9 19.2 70 3.8 N 24 32 13 17 1007.8 1005.5 1.6
27/10:00pm 25.8 25.5 20.4 72 3.6 NNE 22 30 12 16 1006.9 1004.5 1.6
27/09:30pm 26.8 28.3 20.6 69 4.1 E 13 26 7 14 1007.6 1005.3 1.2
27/09:00pm 25.6 26.9 20.8 75 3.2 N 15 20 8 11 1005.9 1003.6 1.2
27/08:30pm 25.8 27.1 21.7 78 2.8 NE 17 22 9 12 1006.1 1003.8 1.2
27/08:00pm 27.8 28.6 19.8 61 5.3 S 15 28 8 15 1006.3 1004.0 0.0
27/07:30pm 27.8 28.3 19.3 60 5.6 SSE 15 30 8 16 1006.4 1004.1 0.0
27/07:00pm 26.4 25.6 20.0 68 4.2 ESE 24 33 13 18 1005.0 1002.7 0.0
27/06:32pm 29.8 27.5 17.6 48 7.8 ESE 26 56 14 30 1005.0 1002.7 0.0
27/06:30pm 30.7 29.4 18.1 47 8.2 E 22 33 12 18 1004.9 1002.6 0.0
27/06:00pm 31.8 30.5 16.9 40 9.6 NE 19 22 10 12 1003.5 1001.1 0.0
27/05:30pm 30.3 29.0 18.1 48 7.9 NE 22 28 12 15 1003.5 1001.1 0.0
27/05:00pm 31.5 28.9 15.0 36 10.3 SE 22 39 12 21 1003.6 1001.2 0.0
27/04:58pm 31.5 28.8 14.6 36 10.5 SE 22 39 12 21 1003.5 1001.1 0.0
27/04:30pm 36.7 35.2 15.2 27 13.7 WSW 17 26 9 14 1002.8 1000.5 0.0
27/04:00pm 37.7 36.5 17.1 29 13.5 W 19 24 10 13 1002.9 1000.6 0.0
27/03:30pm 38.2 36.4 17.0 28 13.9 WSW 22 32 12 17 1003.6 1001.2 0.0
27/03:00pm 37.1 35.5 16.6 29 13.3 W 20 32 11 17 1004.1 1001.7 0.0
27/02:30pm 37.2 35.3 16.7 29 13.3 WSW 22 33 12 18 1004.5 1002.2 0.0
27/02:00pm 36.5 35.1 16.6 30 12.9 WSW 19 28 10 15 1005.0 1002.7 0.0
27/01:30pm 37.2 35.9 17.2 30 13.1 W 20 37 11 20 1005.5 1003.2 0.0
27/01:00pm 35.4 33.7 17.1 33 11.9 W 22 30 12 16 1006.2 1003.9 0.0
27/12:30pm 34.9 33.7 17.6 35 11.3 W 20 33 11 18 1006.8 1004.4 0.0
27/12:00pm 34.3 33.9 18.8 40 10.3 W 19 28 10 15 1007.5 1005.2 0.0
27/11:30am 34.5 33.9 18.9 39 10.4 W 20 33 11 18 1008.0 1005.7 0.0
27/11:00am 33.7 32.8 19.0 42 9.8 W 22 32 12 17 1008.5 1006.2 0.0
27/10:30am 33.4 32.5 19.1 42 9.5 WNW 22 32 12 17 1008.7 1006.4 0.0
27/10:00am 33.1 33.0 19.6 45 9.0 W 19 26 10 14 1008.6 1006.3 0.0
27/09:30am 31.9 32.8 19.2 47 8.4 WNW 13 19 7 10 1008.6 1006.3 0.0
27/09:00am 31.0 32.3 19.4 50 7.7 WNW 11 17 6 9 1008.5 1006.2 0.0
27/08:30am 30.0 31.6 19.1 52 7.2 NNW 9 11 5 6 1008.1 1005.8 0.0
27/08:00am 28.7 30.5 19.6 58 6.0 NNE 9 9 5 5 1008.1 1005.8 0.0
27/07:30am 27.2 31.2 20.5 67 4.5 CALM 0 9 0 5 1007.9 1005.6 0.0
27/07:00am 25.6 29.6 20.6 74 3.3 CALM 0 0 0 0 1007.6 1005.3 0.0
27/06:30am 25.0 28.4 20.9 78 2.7 N 4 6 2 3 1007.4 1005.1 0.0
27/06:00am 24.9 28.2 20.8 78 2.7 ESE 4 7 2 4 1007.3 1005.0 0.0
27/05:30am 24.8 27.7 20.7 78 2.7 SSE 6 6 3 3 1007.0 1004.6 0.0
27/05:00am 24.9 27.9 20.8 78 2.7 SSE 6 6 3 3 1006.5 1004.2 0.0
27/04:30am 25.2 29.4 20.9 77 2.9 CALM 0 0 0 0 1006.4 1004.1 0.0
27/04:00am 25.3 28.4 20.3 74 3.3 ENE 4 9 2 5 1006.3 1004.0 0.0
27/03:30am 25.8 28.4 20.1 71 3.8 NE 6 7 3 4 1006.0 1003.7 0.0
27/03:00am 26.4 28.7 19.8 67 4.3 NNE 7 9 4 5 1006.0 1003.7 0.0
27/02:30am 26.9 29.2 19.8 65 4.7 NNE 7 9 4 5 1006.1 1003.8 0.0
27/02:00am 27.4 29.6 19.5 62 5.2 NNE 7 9 4 5 1006.2 1003.9 0.0
27/01:30am 27.4 29.6 19.5 62 5.2 NNE 7 9 4 5 1006.5 1004.2 0.0
27/01:00am 27.8 29.0 19.1 59 5.7 N 11 15 6 8 1006.5 1004.2 0.0
27/12:30am 27.8 28.7 19.3 60 5.6 NNW 13 19 7 10 1007.1 1004.7 0.0
27/12:00am 27.9 29.0 19.7 61 5.4 NNW 13 15 7 8 1007.8 1005.5 0.0
 
Date/Time
EST
Temp
°C
App
Temp
°C
Dew
Point
Rel
Hum
%
Delta-T
°C
Wind Press
QNH
hPa
Press
MSL
hPa
Rain
since 9 am
mm
Dir
 
Spd
km/h
Gust
km/h
Spd
kts
Gust
kts
26/11:30pm 27.5 30.1 20.1 64 4.9 SW 6 9 3 5 1008.7 1006.4 0.0
26/11:00pm 27.8 29.2 19.6 61 5.4 S 11 17 6 9 1009.1 1006.8 0.0
26/10:30pm 28.2 29.2 19.4 59 5.8 SSW 13 17 7 9 1009.0 1006.7 0.0

Other Formats:

Comma delimited format used in spreadsheet applications
http://www.bom.gov.au/fwo/IDQ60801/IDQ60801.94343.axf

JavaScript Object Notation format (JSON) in row-major order
http://www.bom.gov.au/fwo/IDQ60801/IDQ60801.94343.json